createdAt,value
2019-02-06T00:01:13.490Z,-0.40
2019-02-06T00:03:43.781Z,-0.40
2019-02-06T00:06:14.126Z,-0.50
2019-02-06T00:08:44.439Z,-0.50
2019-02-06T00:11:15.062Z,-0.60
2019-02-06T00:13:45.382Z,-0.60
2019-02-06T00:16:15.765Z,-0.60
2019-02-06T00:18:46.146Z,-0.70
2019-02-06T00:21:16.475Z,-0.70
2019-02-06T00:23:47.769Z,-0.60
2019-02-06T00:26:18.301Z,-0.60
2019-02-06T00:28:48.607Z,-0.60
2019-02-06T00:31:18.966Z,-0.50
2019-02-06T00:33:49.288Z,-0.50
2019-02-06T00:36:19.633Z,-0.50
2019-02-06T00:38:50.081Z,-0.50
2019-02-06T00:41:20.420Z,-0.50
2019-02-06T00:43:50.725Z,-0.60
2019-02-06T00:46:24.045Z,-0.70
2019-02-06T00:48:54.625Z,-0.70
2019-02-06T00:51:24.967Z,-0.80
2019-02-06T00:53:55.297Z,-0.90
2019-02-06T00:56:25.669Z,-0.90
2019-02-06T00:58:55.992Z,-1.00
2019-02-06T01:01:26.326Z,-1.00
2019-02-06T01:03:57.236Z,-1.10
2019-02-06T01:06:27.957Z,-1.10
2019-02-06T01:08:58.291Z,-1.20
2019-02-06T01:11:28.917Z,-1.20
2019-02-06T01:13:59.237Z,-1.30
2019-02-06T01:16:29.684Z,-1.30
2019-02-06T01:18:59.922Z,-1.40
2019-02-06T01:21:30.262Z,-1.40
2019-02-06T01:24:00.622Z,-1.50
2019-02-06T01:26:31.262Z,-1.50
2019-02-06T01:29:01.580Z,-1.50
2019-02-06T01:31:33.665Z,-1.60
2019-02-06T01:34:04.038Z,-1.60
2019-02-06T01:36:34.380Z,-1.70
2019-02-06T01:39:09.032Z,-1.70
2019-02-06T01:41:39.417Z,-1.70
2019-02-06T01:44:09.729Z,-1.70
2019-02-06T01:46:40.167Z,-1.80
2019-02-06T01:49:10.801Z,-1.80
2019-02-06T01:51:41.157Z,-1.80
2019-02-06T01:54:11.477Z,-1.80
2019-02-06T01:56:41.877Z,-1.80
2019-02-06T01:59:12.276Z,-1.80
2019-02-06T02:01:42.780Z,-1.80
2019-02-06T02:04:13.596Z,-1.80
2019-02-06T02:06:44.026Z,-1.80
2019-02-06T02:09:19.545Z,-1.80
2019-02-06T02:11:50.607Z,-1.80
2019-02-06T02:14:20.982Z,-1.80
2019-02-06T02:16:51.657Z,-1.90
2019-02-06T02:19:22.026Z,-1.90
2019-02-06T02:21:52.627Z,-1.90
2019-02-06T02:24:23.395Z,-1.90
2019-02-06T02:26:53.890Z,-1.90
2019-02-06T02:29:24.560Z,-1.90
2019-02-06T02:31:55.750Z,-1.90
2019-02-06T02:34:26.097Z,-1.90
2019-02-06T02:36:56.483Z,-1.90
2019-02-06T02:39:26.947Z,-1.90
2019-02-06T02:41:57.361Z,-1.80
2019-02-06T02:44:27.779Z,-1.80
2019-02-06T02:46:58.143Z,-1.70
2019-02-06T02:49:28.506Z,-1.60
2019-02-06T02:51:58.908Z,-1.60
2019-02-06T02:54:29.320Z,-1.50
2019-02-06T02:57:00.217Z,-1.50
2019-02-06T02:59:30.819Z,-1.40
2019-02-06T03:02:09.546Z,-1.30
2019-02-06T03:05:05.116Z,-1.20
2019-02-06T03:07:35.454Z,-1.20
2019-02-06T03:10:06.905Z,-1.10
2019-02-06T03:12:37.302Z,-1.10
2019-02-06T03:15:08.625Z,-1.00
2019-02-06T03:17:39.644Z,-1.00
2019-02-06T03:20:11.233Z,-1.00
2019-02-06T03:22:41.540Z,-1.10
2019-02-06T03:25:11.891Z,-1.10
2019-02-06T03:27:42.203Z,-1.20
2019-02-06T03:30:14.605Z,-1.20
2019-02-06T03:32:44.917Z,-1.30
2019-02-06T03:35:15.350Z,-1.40
2019-02-06T03:37:45.708Z,-1.50
2019-02-06T03:40:16.481Z,-1.50
2019-02-06T03:42:46.790Z,-1.60
2019-02-06T03:45:17.522Z,-1.70
2019-02-06T03:47:47.917Z,-1.80
2019-02-06T03:50:18.632Z,-1.80
2019-02-06T03:52:48.942Z,-1.80
2019-02-06T03:55:19.278Z,-1.90
2019-02-06T03:57:49.586Z,-1.90
2019-02-06T04:00:20.322Z,-2.00
2019-02-06T04:02:50.640Z,-2.00
2019-02-06T04:05:20.981Z,-2.00
2019-02-06T04:07:51.303Z,-2.10
2019-02-06T04:10:21.753Z,-2.10
2019-02-06T04:12:52.078Z,-2.10
2019-02-06T04:15:22.429Z,-2.20
2019-02-06T04:17:55.497Z,-2.20
2019-02-06T04:20:25.829Z,-2.20
2019-02-06T04:22:56.239Z,-2.20
2019-02-06T04:25:26.572Z,-2.20
2019-02-06T04:27:57.200Z,-2.20
2019-02-06T04:30:27.627Z,-2.20
2019-02-06T04:32:57.937Z,-2.20
2019-02-06T04:35:30.071Z,-2.10
2019-02-06T04:38:00.437Z,-2.10
2019-02-06T04:40:31.112Z,-2.00
2019-02-06T04:43:01.485Z,-2.00
2019-02-06T04:45:31.825Z,-2.00
2019-02-06T04:48:02.122Z,-2.10
2019-02-06T04:50:32.461Z,-2.10
2019-02-06T04:53:02.792Z,-2.20
2019-02-06T04:55:33.421Z,-2.20
2019-02-06T04:58:03.728Z,-2.20
2019-02-06T05:00:34.093Z,-2.20
2019-02-06T05:03:04.395Z,-2.20
2019-02-06T05:05:35.793Z,-2.10
2019-02-06T05:08:06.113Z,-2.00
2019-02-06T05:10:36.487Z,-1.90
2019-02-06T05:13:06.855Z,-1.80
2019-02-06T05:15:37.432Z,-1.80
2019-02-06T05:18:07.803Z,-1.70
2019-02-06T05:20:39.785Z,-1.70
2019-02-06T05:23:11.094Z,-1.60
2019-02-06T05:25:45.458Z,-1.60
2019-02-06T05:28:18.215Z,-1.60
2019-02-06T05:30:48.697Z,-1.50
2019-02-06T05:33:19.231Z,-1.50
2019-02-06T05:35:50.306Z,-1.50
2019-02-06T05:38:20.716Z,-1.50
2019-02-06T05:40:51.533Z,-1.50
2019-02-06T05:43:22.041Z,-1.50
2019-02-06T05:45:52.583Z,-1.50
2019-02-06T05:48:23.459Z,-1.50
2019-02-06T05:50:54.539Z,-1.50
2019-02-06T05:53:24.979Z,-1.40
2019-02-06T05:55:55.634Z,-1.40
2019-02-06T05:58:26.053Z,-1.40
2019-02-06T06:00:56.454Z,-1.40
2019-02-06T06:03:26.830Z,-1.30
2019-02-06T06:05:57.212Z,-1.30
2019-02-06T06:08:27.621Z,-1.30
2019-02-06T06:10:58.001Z,-1.30
2019-02-06T06:13:28.327Z,-1.30
2019-02-06T06:15:58.623Z,-1.30
2019-02-06T06:18:29.041Z,-1.40
2019-02-06T06:20:59.387Z,-1.40
2019-02-06T06:23:31.213Z,-1.50
2019-02-06T06:26:01.539Z,-1.50
2019-02-06T06:28:31.894Z,-1.50
2019-02-06T06:31:02.305Z,-1.50
2019-02-06T06:33:33.144Z,-1.50
2019-02-06T06:36:03.467Z,-1.50
2019-02-06T06:38:33.825Z,-1.50
2019-02-06T06:41:04.159Z,-1.50
2019-02-06T06:43:34.516Z,-1.50
2019-02-06T06:46:04.985Z,-1.60
2019-02-06T06:48:35.554Z,-1.60
2019-02-06T06:51:05.881Z,-1.60
2019-02-06T06:53:37.400Z,-1.70
2019-02-06T06:56:07.724Z,-1.80
2019-02-06T06:58:38.045Z,-1.80
2019-02-06T07:01:10.857Z,-1.90
2019-02-06T07:03:40.393Z,-1.90
2019-02-06T07:06:10.701Z,-1.80
2019-02-06T07:08:41.136Z,-1.80
2019-02-06T07:11:11.441Z,-1.70
2019-02-06T07:13:41.791Z,-1.70
2019-02-06T07:16:12.105Z,-1.60
2019-02-06T07:18:42.458Z,-1.50
2019-02-06T07:21:12.786Z,-1.40
2019-02-06T07:23:43.161Z,-1.30
2019-02-06T07:26:13.505Z,-1.30
2019-02-06T07:28:43.878Z,-1.20
2019-02-06T07:31:14.208Z,-1.10
2019-02-06T07:33:44.851Z,-1.10
2019-02-06T07:36:15.162Z,-1.00
2019-02-06T07:38:45.686Z,-0.90
2019-02-06T07:41:16.016Z,-0.90
2019-02-06T07:43:46.678Z,-0.90
2019-02-06T07:46:17.027Z,-0.80
2019-02-06T07:48:47.373Z,-0.80
2019-02-06T07:51:17.737Z,-0.70
2019-02-06T07:53:48.043Z,-0.70
2019-02-06T07:56:18.410Z,-0.60
2019-02-06T07:58:50.757Z,-0.50
2019-02-06T08:01:20.691Z,-0.50
2019-02-06T08:03:51.382Z,-0.40
2019-02-06T08:06:21.816Z,-0.30
2019-02-06T08:08:52.767Z,-0.20
2019-02-06T08:11:24.179Z,-0.20
2019-02-06T08:13:54.854Z,-0.10
2019-02-06T08:16:25.114Z,0.00
2019-02-06T08:18:55.682Z,0.10
2019-02-06T08:21:26.033Z,0.10
2019-02-06T08:23:56.541Z,0.20
2019-02-06T08:26:26.910Z,0.20
2019-02-06T08:28:57.291Z,0.30
2019-02-06T08:31:27.688Z,0.40
2019-02-06T08:33:58.012Z,0.50
2019-02-06T08:36:28.417Z,0.50
2019-02-06T08:38:59.053Z,0.60
2019-02-06T08:41:29.503Z,0.60
2019-02-06T08:44:01.887Z,0.70
2019-02-06T08:46:31.823Z,0.80
2019-02-06T08:49:02.543Z,0.90
2019-02-06T08:51:32.965Z,1.00
2019-02-06T08:54:03.329Z,1.10
2019-02-06T08:56:33.643Z,1.20
2019-02-06T08:59:04.585Z,1.20
2019-02-06T09:01:34.983Z,1.30
2019-02-06T09:04:05.413Z,1.40
2019-02-06T09:06:36.014Z,1.50
2019-02-06T09:09:10.580Z,1.70
2019-02-06T09:11:40.890Z,1.70
2019-02-06T09:14:11.329Z,1.80
2019-02-06T09:16:41.645Z,1.80
2019-02-06T09:19:12.015Z,1.90
2019-02-06T09:21:42.332Z,2.00
2019-02-06T09:24:12.650Z,2.00
2019-02-06T09:26:43.024Z,2.00
2019-02-06T09:29:13.343Z,2.10
2019-02-06T09:31:43.644Z,2.20
2019-02-06T09:34:14.385Z,2.30
2019-02-06T09:36:44.695Z,2.40
2019-02-06T09:39:15.109Z,2.50
2019-02-06T09:41:45.451Z,2.60
2019-02-06T09:44:15.891Z,2.80
2019-02-06T09:46:46.216Z,2.90
2019-02-06T09:49:16.862Z,3.10
2019-02-06T09:51:47.214Z,3.20
2019-02-06T09:54:17.547Z,3.30
2019-02-06T09:56:50.595Z,3.50
2019-02-06T09:59:19.829Z,3.60
2019-02-06T10:01:50.154Z,3.70
2019-02-06T10:04:20.486Z,3.80
2019-02-06T10:06:50.785Z,3.90
2019-02-06T10:09:23.099Z,4.00
2019-02-06T10:11:53.064Z,4.10
2019-02-06T10:14:23.437Z,4.20
2019-02-06T10:16:53.866Z,4.30
2019-02-06T10:19:24.170Z,4.40
2019-02-06T10:21:54.578Z,4.50
2019-02-06T10:24:24.862Z,4.50
2019-02-06T10:26:57.358Z,4.50
2019-02-06T10:29:27.663Z,4.60
2019-02-06T10:31:57.952Z,4.60
2019-02-06T10:34:28.284Z,4.80
2019-02-06T10:36:58.569Z,4.80
2019-02-06T10:39:34.540Z,5.00
2019-02-06T10:42:00.815Z,5.30
2019-02-06T10:44:31.564Z,5.60
2019-02-06T10:47:03.006Z,6.00
2019-02-06T10:49:33.341Z,6.40
2019-02-06T10:52:03.641Z,6.70
2019-02-06T10:54:34.013Z,7.10
2019-02-06T10:57:04.530Z,7.30
2019-02-06T10:59:34.873Z,7.60
2019-02-06T11:02:05.289Z,7.80
2019-02-06T11:04:35.739Z,8.10
2019-02-06T11:07:08.261Z,8.40
2019-02-06T11:09:45.870Z,8.70
2019-02-06T11:12:09.999Z,9.10
2019-02-06T11:14:40.347Z,9.40
2019-02-06T11:17:10.794Z,9.80
2019-02-06T11:19:43.136Z,10.30
2019-02-06T11:22:13.110Z,10.80
2019-02-06T11:24:43.483Z,11.40
2019-02-06T11:27:13.943Z,12.00
2019-02-06T11:29:44.500Z,12.50
2019-02-06T11:32:14.852Z,13.00
2019-02-06T11:34:45.216Z,13.40
2019-02-06T11:37:15.543Z,13.80
2019-02-06T11:39:57.330Z,14.10
2019-02-06T11:42:18.232Z,14.50
2019-02-06T11:44:48.848Z,14.90
2019-02-06T11:47:19.104Z,15.30
2019-02-06T11:49:51.857Z,15.70
2019-02-06T11:52:22.466Z,16.10
2019-02-06T11:54:52.956Z,16.60
2019-02-06T11:57:24.233Z,16.80
2019-02-06T11:59:54.838Z,17.00
2019-02-06T12:02:36.757Z,17.20
2019-02-06T12:04:57.869Z,17.30
2019-02-06T12:07:28.196Z,17.30
2019-02-06T12:10:09.013Z,17.40
2019-02-06T12:12:30.548Z,17.40
2019-02-06T12:15:00.914Z,17.30
2019-02-06T12:17:31.415Z,17.50
2019-02-06T12:20:02.191Z,17.80
2019-02-06T12:22:32.554Z,18.20
2019-02-06T12:25:02.921Z,18.50
2019-02-06T12:27:33.238Z,18.70
2019-02-06T12:30:05.143Z,19.00
2019-02-06T12:32:35.638Z,19.30
2019-02-06T12:35:07.150Z,19.70
2019-02-06T12:37:37.466Z,20.10
2019-02-06T12:40:08.010Z,20.20
2019-02-06T12:42:38.317Z,20.20
2019-02-06T12:45:10.483Z,20.20
2019-02-06T12:47:40.821Z,20.10
2019-02-06T12:50:11.931Z,20.10
2019-02-06T12:52:42.262Z,20.30
2019-02-06T12:55:19.537Z,20.50
2019-02-06T12:57:48.599Z,20.60
2019-02-06T13:00:22.427Z,20.80
2019-02-06T13:02:56.358Z,20.90
2019-02-06T13:05:25.053Z,21.10
2019-02-06T13:07:55.697Z,21.10
2019-02-06T13:10:33.461Z,21.20
2019-02-06T13:12:58.006Z,21.50
2019-02-06T13:15:28.398Z,21.90
2019-02-06T13:17:58.711Z,22.30
2019-02-06T13:20:30.045Z,22.60
2019-02-06T13:23:00.360Z,22.80
2019-02-06T13:25:30.775Z,22.80
2019-02-06T13:28:01.214Z,22.90
2019-02-06T13:30:34.187Z,23.00
2019-02-06T13:33:06.500Z,23.00
2019-02-06T13:35:38.012Z,22.60
2019-02-06T13:38:08.609Z,22.40
2019-02-06T13:40:45.561Z,22.30
2019-02-06T13:43:10.994Z,22.20
2019-02-06T13:45:43.846Z,22.40
2019-02-06T13:48:14.309Z,22.50
2019-02-06T13:50:44.965Z,22.70
2019-02-06T13:53:15.315Z,22.80
2019-02-06T13:55:45.778Z,22.50
2019-02-06T13:58:20.126Z,22.50
2019-02-06T14:00:48.298Z,22.60
2019-02-06T14:03:18.720Z,22.80
2019-02-06T14:05:49.269Z,23.10
2019-02-06T14:08:19.720Z,23.20
2019-02-06T14:11:00.296Z,23.40
2019-02-06T14:13:22.968Z,23.60
2019-02-06T14:15:53.639Z,23.80
2019-02-06T14:18:24.167Z,23.80
2019-02-06T14:20:55.112Z,23.80
2019-02-06T14:23:32.545Z,23.70
2019-02-06T14:26:33.149Z,23.80
2019-02-06T14:29:32.693Z,23.90
2019-02-06T14:32:31.882Z,23.80
2019-02-06T14:35:33.932Z,23.70
2019-02-06T14:38:40.638Z,23.40
2019-02-06T14:41:36.022Z,23.10
2019-02-06T14:44:26.167Z,22.70
2019-02-06T14:47:27.862Z,22.60
2019-02-06T14:50:17.752Z,22.70
2019-02-06T14:53:07.680Z,22.80
2019-02-06T14:56:10.092Z,22.80
2019-02-06T14:59:23.656Z,22.90
2019-02-06T15:02:38.114Z,23.00
2019-02-06T15:05:33.862Z,23.00
2019-02-06T15:08:45.645Z,23.00
2019-02-06T15:11:40.790Z,22.90
2019-02-06T15:14:33.258Z,22.70
2019-02-06T15:18:02.930Z,22.50
2019-02-06T15:21:14.185Z,22.30
2019-02-06T15:24:16.290Z,22.00
2019-02-06T15:27:15.929Z,21.70
2019-02-06T15:30:15.765Z,21.40
2019-02-06T15:33:13.281Z,21.10
2019-02-06T15:36:03.820Z,20.70
2019-02-06T15:39:18.339Z,20.30
2019-02-06T15:42:20.014Z,19.90
2019-02-06T15:45:10.866Z,19.20
2019-02-06T15:48:06.882Z,18.20
2019-02-06T15:51:09.582Z,17.20
2019-02-06T15:53:51.311Z,16.10
2019-02-06T15:57:13.547Z,15.00
2019-02-06T16:00:19.881Z,14.20
2019-02-06T16:03:18.138Z,13.30
2019-02-06T16:06:36.393Z,12.60
2019-02-06T16:09:51.022Z,12.10
2019-02-06T16:13:14.265Z,11.50
2019-02-06T16:16:31.907Z,11.00
2019-02-06T16:19:45.270Z,10.40
2019-02-06T16:22:57.018Z,10.00
2019-02-06T16:25:53.291Z,9.50
2019-02-06T16:28:43.752Z,9.10
2019-02-06T16:31:57.473Z,8.80
2019-02-06T16:35:01.679Z,8.40
2019-02-06T16:37:54.024Z,8.10
2019-02-06T16:40:50.037Z,7.70
2019-02-06T16:44:10.897Z,7.40
2019-02-06T16:46:55.592Z,7.10
2019-02-06T16:49:49.177Z,6.80
2019-02-06T16:52:46.754Z,6.60
2019-02-06T16:55:41.498Z,6.40
2019-02-06T16:58:38.318Z,6.30
2019-02-06T17:01:43.225Z,6.10
2019-02-06T17:05:00.426Z,5.90
2019-02-06T17:08:00.877Z,5.70
2019-02-06T17:11:05.622Z,5.60
2019-02-06T17:14:12.921Z,5.40
2019-02-06T17:17:35.942Z,5.30
2019-02-06T17:21:05.699Z,5.10
2019-02-06T17:24:16.164Z,5.00
2019-02-06T17:27:01.367Z,4.80
2019-02-06T17:30:16.156Z,4.70
2019-02-06T17:33:27.481Z,4.60
2019-02-06T17:36:28.784Z,4.50
2019-02-06T17:39:46.787Z,4.30
2019-02-06T17:42:47.006Z,4.20
2019-02-06T17:45:47.766Z,4.00
2019-02-06T17:48:40.122Z,3.90
2019-02-06T17:51:40.754Z,3.80
2019-02-06T17:54:18.404Z,3.70
2019-02-06T17:56:50.030Z,3.80
2019-02-06T17:59:20.642Z,3.80
2019-02-06T18:01:55.796Z,3.90
2019-02-06T18:04:35.692Z,4.00
2019-02-06T18:07:06.731Z,4.00
2019-02-06T18:09:37.435Z,4.00
2019-02-06T18:12:08.362Z,4.00
2019-02-06T18:14:39.006Z,3.90
2019-02-06T18:17:09.348Z,3.90
2019-02-06T18:19:40.886Z,3.90
2019-02-06T18:22:11.371Z,3.90
2019-02-06T18:24:41.714Z,3.80
2019-02-06T18:27:12.764Z,3.70
2019-02-06T18:29:43.166Z,3.60
2019-02-06T18:32:15.118Z,3.40
2019-02-06T18:34:45.667Z,3.30
2019-02-06T18:37:16.263Z,3.20
2019-02-06T18:39:46.737Z,3.10
2019-02-06T18:42:17.296Z,2.90
2019-02-06T18:44:49.791Z,2.80
2019-02-06T18:47:23.530Z,2.70
2019-02-06T18:49:54.084Z,2.60
2019-02-06T18:52:24.573Z,2.50
2019-02-06T18:54:57.373Z,2.40
2019-02-06T18:57:27.758Z,2.30
2019-02-06T18:59:58.785Z,2.30
2019-02-06T19:02:29.320Z,2.20
2019-02-06T19:05:00.103Z,2.10
2019-02-06T19:07:30.505Z,2.10
2019-02-06T19:10:00.896Z,2.00
2019-02-06T19:12:32.320Z,1.90
2019-02-06T19:15:03.119Z,1.90
2019-02-06T19:17:33.570Z,1.80
2019-02-06T19:20:04.587Z,1.70
2019-02-06T19:22:34.994Z,1.70
2019-02-06T19:25:06.472Z,1.60
2019-02-06T19:27:36.851Z,1.60
2019-02-06T19:30:20.000Z,1.50
2019-02-06T19:32:52.397Z,1.50
2019-02-06T19:35:22.784Z,1.40
2019-02-06T19:37:54.175Z,1.30
2019-02-06T19:40:24.576Z,1.30
2019-02-06T19:43:00.491Z,1.20
2019-02-06T19:45:27.670Z,1.10
2019-02-06T19:47:58.406Z,1.10
2019-02-06T19:50:33.976Z,1.10
2019-02-06T19:53:04.597Z,1.00
2019-02-06T19:55:34.999Z,1.00
2019-02-06T19:58:05.943Z,0.90
2019-02-06T20:00:36.334Z,0.90
2019-02-06T20:03:08.171Z,1.00
2019-02-06T20:05:38.773Z,1.00
2019-02-06T20:08:09.285Z,1.00
2019-02-06T20:10:42.040Z,1.10
2019-02-06T20:13:14.489Z,1.10
2019-02-06T20:15:44.801Z,1.10
2019-02-06T20:18:16.589Z,1.10
2019-02-06T20:20:47.158Z,1.20
2019-02-06T20:23:17.914Z,1.20
2019-02-06T20:25:48.348Z,1.30
2019-02-06T20:28:18.907Z,1.30
2019-02-06T20:30:49.530Z,1.30
2019-02-06T20:33:20.437Z,1.20
2019-02-06T20:35:50.790Z,1.20
2019-02-06T20:38:21.189Z,1.20
2019-02-06T20:40:51.524Z,1.20
2019-02-06T20:43:23.180Z,1.10
2019-02-06T20:45:54.375Z,1.10
2019-02-06T20:48:25.480Z,1.10
2019-02-06T20:50:57.659Z,1.10
2019-02-06T20:53:29.851Z,1.00
2019-02-06T20:56:00.334Z,1.00
2019-02-06T20:58:31.676Z,1.10
2019-02-06T21:01:02.362Z,1.10
2019-02-06T21:03:32.717Z,1.10
2019-02-06T21:06:03.430Z,1.00
2019-02-06T21:08:34.255Z,1.00
2019-02-06T21:11:04.766Z,1.00
2019-02-06T21:13:35.281Z,1.10
2019-02-06T21:16:06.154Z,1.10
2019-02-06T21:18:36.548Z,1.10
2019-02-06T21:21:06.885Z,1.10
2019-02-06T21:23:37.306Z,1.10
2019-02-06T21:26:07.681Z,1.00
2019-02-06T21:28:39.577Z,1.00
2019-02-06T21:31:09.913Z,0.90
2019-02-06T21:33:40.329Z,0.80
2019-02-06T21:36:10.662Z,0.70
2019-02-06T21:38:41.094Z,0.60
2019-02-06T21:41:11.419Z,0.60
2019-02-06T21:43:44.112Z,0.50
2019-02-06T21:46:13.790Z,0.50
2019-02-06T21:48:44.309Z,0.40
2019-02-06T21:51:14.780Z,0.40
2019-02-06T21:53:49.185Z,0.30
2019-02-06T21:56:19.637Z,0.30
2019-02-06T21:58:50.056Z,0.20
2019-02-06T22:01:20.501Z,0.20
2019-02-06T22:03:50.923Z,0.20
2019-02-06T22:06:21.264Z,0.20
2019-02-06T22:08:51.702Z,0.20
2019-02-06T22:11:22.107Z,0.30
2019-02-06T22:13:55.100Z,0.40
2019-02-06T22:16:24.530Z,0.50
2019-02-06T22:18:54.957Z,0.60
2019-02-06T22:21:25.349Z,0.70
2019-02-06T22:23:56.160Z,0.80
2019-02-06T22:26:26.483Z,0.90
2019-02-06T22:28:56.820Z,1.10
2019-02-06T22:31:27.203Z,1.10
2019-02-06T22:33:57.516Z,1.20
2019-02-06T22:36:27.939Z,1.30
2019-02-06T22:38:58.350Z,1.40
2019-02-06T22:41:28.729Z,1.40
2019-02-06T22:44:06.270Z,1.50
2019-02-06T22:46:31.069Z,1.50
2019-02-06T22:49:01.417Z,1.50
2019-02-06T22:51:32.211Z,1.40
2019-02-06T22:54:02.563Z,1.40
2019-02-06T22:56:33.073Z,1.40
2019-02-06T22:59:03.495Z,1.40
2019-02-06T23:01:39.078Z,1.40
2019-02-06T23:04:10.256Z,1.40
2019-02-06T23:06:40.561Z,1.40
2019-02-06T23:09:11.081Z,1.40
2019-02-06T23:11:41.689Z,1.40
2019-02-06T23:14:17.756Z,1.40
2019-02-06T23:16:44.611Z,1.40
2019-02-06T23:19:15.155Z,1.30
2019-02-06T23:21:45.643Z,1.30
2019-02-06T23:24:15.973Z,1.30
2019-02-06T23:26:46.423Z,1.30
2019-02-06T23:29:17.203Z,1.40
2019-02-06T23:31:49.902Z,1.40
2019-02-06T23:34:22.808Z,1.40
2019-02-06T23:36:53.582Z,1.40
2019-02-06T23:39:23.949Z,1.40
2019-02-06T23:41:54.416Z,1.40
2019-02-06T23:44:36.164Z,1.30
2019-02-06T23:47:06.557Z,1.30
2019-02-06T23:49:36.894Z,1.30
2019-02-06T23:52:07.724Z,1.30
2019-02-06T23:54:38.508Z,1.30
2019-02-06T23:57:08.812Z,1.30
2019-02-06T23:59:39.330Z,1.30
